ローマ/フィウミチーノ の空港の天気 - METARとTAF

ローマ・レオナルド・ダ・ビンチ国際空港 ( LIRF / FCO ) - イタリア ローマ
飛行場実況気象(Metar)
観測時間02/28 01:20 CET (02/28 00:20 UTC)
風向・風速東 3m/s
視程10km以上
天気現象
なし
気温6℃
湿度87%
気圧1017hPa
METARLIRF 280020Z 09006KT CAVOK 06/04 Q1017 NOSIG
過去の天気等 Google飛行場航空写真 Wunderground天気予報

過去48時間のMETAR

飛行場予報(TAF)
発表時間: 2/28 00:00 CET (2/27 23:00 UTC)
予報対象時間: 28日1時 CET ~ 1日7時 CET
風向・風速南東 4m/s
視程10km以上
少しの雲 雲底高度 610m
28日8時 CET ~ 28日10時 CET に徐々に
風向・風速南西 9m/s
1日1時 CET ~ 1日3時 CET に徐々に
風向・風速北北西 8m/s
1日1時 CET ~ 1日7時 CET に一時的に
視程4,000m
天気現象しゅう雨
TAF LIRF 272300Z 2800/0106 14008KT 9999 FEW020
BECMG 2807/2809 22018KT
BECMG 0100/0102 33016KT
TEMPO 0100/0106 4000 SHRA